Time;durP1;ratioP1;P1;durP2;ratioP2;P2;SDS_P1;SDS_P2;PMS_P1;PMS_P2;Temp;Humidity;BMP_temperature;BMP_pressure;BME280_temperature;BME280_humidity;BME280_pressure;Samples;Min_cycle;Max_cycle;Signal;HPM_P1;HPM_P2
2022/12/17 13:07:22;;;;;;;76.13;24.30;;;-2.20;99.90;;;;;;4152641;28;20458;-74
2022/12/17 13:09:38;;;;;;;76.60;25.40;;;-2.30;99.90;;;;;;4174684;28;20961;-74
2022/12/17 13:11:41;;;;;;;71.23;23.33;;;-2.30;99.90;;;;;;4170221;28;20999;-74
2022/12/17 13:13:55;;;;;;;74.63;25.17;;;-2.30;99.90;;;;;;4172408;28;20457;-74
2022/12/17 13:16:02;;;;;;;76.57;25.05;;;-2.30;99.90;;;;;;4166229;28;20478;-74
2022/12/17 13:18:18;;;;;;;78.70;24.37;;;-2.40;99.90;;;;;;4173029;28;20245;-74
2022/12/17 13:20:29;;;;;;;65.00;22.33;;;-2.40;99.90;;;;;;4157529;28;20553;-74
2022/12/17 13:22:33;;;;;;;74.77;24.50;;;-2.40;99.90;;;;;;4169139;28;20532;-74
2022/12/17 13:24:37;;;;;;;71.72;23.30;;;-2.50;99.90;;;;;;4168974;28;20458;-74
2022/12/17 13:26:45;;;;;;;66.43;22.77;;;-2.50;99.90;;;;;;4170271;28;20669;-74
2022/12/17 13:29:01;;;;;;;68.53;22.67;;;-2.50;99.90;;;;;;4175392;28;20456;-74
2022/12/17 13:31:04;;;;;;;63.95;22.10;;;-2.50;99.90;;;;;;4177125;28;20198;-74
2022/12/17 13:33:28;;;;;;;65.20;22.55;;;-2.50;99.90;;;;;;4175969;28;20260;-74
2022/12/17 13:35:40;;;;;;;57.13;21.73;;;-2.50;99.90;;;;;;4163412;28;20221;-74
2022/12/17 13:37:51;;;;;;;66.57;23.10;;;-2.50;99.90;;;;;;4173609;28;20222;-74
2022/12/17 13:40:04;;;;;;;70.90;22.80;;;-2.50;99.90;;;;;;4167540;28;20449;-74
2022/12/17 13:42:17;;;;;;;60.90;21.50;;;-2.50;99.90;;;;;;4166850;28;20555;-74
2022/12/17 13:44:24;;;;;;;65.55;23.42;;;-2.50;99.90;;;;;;4164588;28;20511;-74
2022/12/17 13:46:30;;;;;;;63.80;22.50;;;-2.50;99.90;;;;;;4166532;28;20226;-74
2022/12/17 13:48:32;;;;;;;69.70;23.73;;;-2.50;99.90;;;;;;4172319;28;20223;-74
2022/12/17 13:50:34;;;;;;;69.70;22.20;;;-2.50;99.90;;;;;;4153796;28;20524;-73
2022/12/17 13:52:36;;;;;;;65.95;22.60;;;-2.60;99.90;;;;;;4170656;28;20456;-74
2022/12/17 13:54:38;;;;;;;60.83;21.27;;;-2.60;99.90;;;;;;4150577;28;20265;-73
2022/12/17 13:56:41;;;;;;;67.00;22.48;;;-2.60;99.90;;;;;;4168168;28;20472;-75
2022/12/17 13:58:43;;;;;;;65.07;21.88;;;-2.60;99.90;;;;;;4172962;28;20210;-75
2022/12/17 14:00:48;;;;;;;62.63;22.77;;;-2.70;99.90;;;;;;4167934;28;20211;-74
2022/12/17 14:02:54;;;;;;;62.50;21.08;;;-2.70;99.90;;;;;;4150006;28;20875;-75
2022/12/17 14:04:57;;;;;;;66.80;22.92;;;-2.60;99.90;;;;;;4154168;28;20792;-75
2022/12/17 14:07:07;;;;;;;71.10;23.60;;;-2.70;99.90;;;;;;4167158;28;20219;-75
2022/12/17 14:09:18;;;;;;;59.00;20.45;;;-2.70;99.90;;;;;;4151291;28;20209;-75
2022/12/17 14:13:42;;;;;;;67.40;22.15;;;-2.70;99.90;;;;;;4152012;28;20215;-75
2022/12/17 14:15:47;;;;;;;72.05;22.85;;;-2.70;99.90;;;;;;4168241;28;20208;-75
2022/12/17 14:17:50;;;;;;;66.97;21.77;;;-2.70;99.90;;;;;;4169064;28;20589;-75
2022/12/17 14:19:58;;;;;;;60.53;21.05;;;-2.60;99.90;;;;;;4158966;28;20465;-75
2022/12/17 14:22:01;;;;;;;65.13;21.90;;;-2.50;99.90;;;;;;4173820;28;20286;-76
2022/12/17 14:24:04;;;;;;;63.85;21.50;;;-2.80;99.90;;;;;;4168290;28;20213;-74
2022/12/17 14:26:09;;;;;;;59.40;20.70;;;-2.80;99.90;;;;;;4173895;28;20230;-75
2022/12/17 14:28:23;;;;;;;66.47;21.95;;;-2.50;99.90;;;;;;4164610;28;20223;-75
2022/12/17 14:30:36;;;;;;;74.13;21.52;;;-2.90;99.90;;;;;;4153707;28;20207;-75
2022/12/17 14:32:38;;;;;;;66.07;21.17;;;-2.60;99.90;;;;;;4170964;28;20290;-75
2022/12/17 14:34:41;;;;;;;76.00;24.02;;;-2.90;99.90;;;;;;4174487;28;20464;-75
2022/12/17 14:36:45;;;;;;;70.50;22.65;;;-2.90;99.90;;;;;;4150629;28;20235;-75
2022/12/17 14:38:53;;;;;;;73.50;22.60;;;-2.90;99.90;;;;;;4171379;28;20253;-76
2022/12/17 14:42:23;;;;;;;73.22;24.45;;;-2.90;99.90;;;;;;4176415;28;21001;-75
2022/12/17 14:43:28;;;;;;;68.47;21.38;;;-2.90;99.90;;;;;;4176928;28;20230;-74
2022/12/17 14:45:31;;;;;;;67.40;23.17;;;-3.00;99.90;;;;;;4168834;28;20211;-74
2022/12/17 14:47:35;;;;;;;71.07;23.38;;;-3.00;99.90;;;;;;4174105;28;20222;-75
2022/12/17 14:49:47;;;;;;;70.13;22.42;;;-3.00;99.90;;;;;;4169709;28;20230;-75
2022/12/17 14:51:50;;;;;;;66.95;21.48;;;-3.00;99.90;;;;;;4154907;28;20215;-75
2022/12/17 14:53:52;;;;;;;67.63;22.67;;;-3.00;99.90;;;;;;4159350;28;20211;-76
2022/12/17 14:55:56;;;;;;;75.43;24.45;;;-3.00;99.90;;;;;;4171912;28;20202;-74
2022/12/17 14:58:18;;;;;;;68.90;20.95;;;-3.00;99.90;;;;;;4182476;28;20753;-75
2022/12/17 15:00:21;;;;;;;63.58;21.55;;;-3.00;99.90;;;;;;4155039;28;20204;-76
2022/12/17 15:02:27;;;;;;;72.60;23.08;;;-3.10;99.90;;;;;;4154451;28;20338;-75
2022/12/17 15:04:31;;;;;;;74.95;23.52;;;-3.00;99.90;;;;;;4151628;28;20225;-74
2022/12/17 15:06:33;;;;;;;74.43;22.92;;;-3.10;99.90;;;;;;4171379;28;20223;-75
2022/12/17 15:08:37;;;;;;;69.85;23.20;;;-3.10;99.90;;;;;;4174069;28;21675;-75
2022/12/17 15:10:39;;;;;;;70.97;23.23;;;-2.40;99.90;;;;;;4176532;28;20575;-75
2022/12/17 15:12:42;;;;;;;79.20;23.70;;;-3.10;99.90;;;;;;4151662;28;20270;-75
2022/12/17 15:14:45;;;;;;;75.75;25.77;;;-3.10;99.90;;;;;;4163544;28;20227;-74
2022/12/17 15:16:47;;;;;;;75.45;23.13;;;-3.10;99.90;;;;;;4172465;28;20312;-75
2022/12/17 15:18:50;;;;;;;71.43;23.50;;;-3.10;99.90;;;;;;4171131;28;20249;-75
2022/12/17 15:20:52;;;;;;;74.80;23.88;;;-3.10;99.90;;;;;;4170560;28;20269;-75
2022/12/17 15:22:54;;;;;;;77.07;23.95;;;-3.10;99.90;;;;;;4170901;28;20687;-75
2022/12/17 15:24:56;;;;;;;85.47;26.15;;;-3.20;99.90;;;;;;4177087;28;20257;-75
2022/12/17 15:26:58;;;;;;;83.20;27.75;;;-3.20;99.90;;;;;;4176927;28;20223;-75
2022/12/17 15:29:01;;;;;;;77.60;25.25;;;-3.20;99.90;;;;;;4172448;28;20691;-75
2022/12/17 15:31:03;;;;;;;77.35;23.55;;;-3.20;99.90;;;;;;4168925;28;20561;-75
2022/12/17 15:33:06;;;;;;;73.70;23.63;;;-3.20;99.90;;;;;;4170914;28;20210;-75
2022/12/17 15:35:11;;;;;;;69.63;22.70;;;-3.20;99.90;;;;;;4173990;28;20856;-75
2022/12/17 15:37:13;;;;;;;72.28;23.00;;;-3.20;99.90;;;;;;4165592;28;20223;-75
2022/12/17 15:39:15;;;;;;;75.78;24.20;;;-3.20;99.90;;;;;;4171567;28;20735;-75
2022/12/17 15:43:36;;;;;;;73.47;23.17;;;-2.80;99.90;;;;;;4172040;28;20203;-75
2022/12/17 15:45:39;;;;;;;86.25;26.55;;;-3.20;99.90;;;;;;4175916;28;20955;-75
2022/12/17 15:47:43;;;;;;;82.10;25.25;;;-2.70;99.90;;;;;;4172395;28;20208;-75
2022/12/17 15:49:45;;;;;;;76.05;23.85;;;-3.20;99.90;;;;;;4156711;28;20219;-75
2022/12/17 15:51:49;;;;;;;78.18;24.27;;;-3.20;99.90;;;;;;4175719;28;20202;-75
2022/12/17 15:53:51;;;;;;;80.40;25.08;;;-3.20;99.90;;;;;;4171135;28;20613;-75
2022/12/17 15:56:00;;;;;;;87.47;26.27;;;-2.90;99.90;;;;;;4152964;28;20203;-75
2022/12/17 15:58:02;;;;;;;89.38;24.85;;;-3.20;99.90;;;;;;4167387;28;20305;-75
2022/12/17 16:00:05;;;;;;;82.90;24.73;;;-3.20;99.90;;;;;;4174999;28;20203;-75
2022/12/17 16:02:10;;;;;;;87.05;25.83;;;-3.20;99.90;;;;;;4175958;28;20211;-75
2022/12/17 16:04:12;;;;;;;89.78;27.35;;;-3.20;99.90;;;;;;4180921;28;20209;-75
2022/12/17 16:06:14;;;;;;;102.07;29.55;;;-3.20;99.90;;;;;;4173069;28;20788;-75
2022/12/17 16:08:17;;;;;;;90.63;28.65;;;-3.20;99.90;;;;;;4172390;28;20230;-74
2022/12/17 16:10:20;;;;;;;101.07;28.40;;;-3.20;99.90;;;;;;4170883;28;20199;-74
2022/12/17 16:12:24;;;;;;;97.90;27.60;;;-3.20;99.90;;;;;;4155990;28;20270;-75
2022/12/17 16:14:27;;;;;;;89.63;27.17;;;-3.20;99.90;;;;;;4158357;28;20215;-74
2022/12/17 16:16:30;;;;;;;91.82;28.38;;;-3.10;99.90;;;;;;4165353;28;20295;-75
2022/12/17 16:18:32;;;;;;;102.22;29.98;;;-3.10;99.90;;;;;;4176765;28;20248;-74
2022/12/17 16:20:34;;;;;;;102.25;31.23;;;-3.20;99.90;;;;;;4169830;28;20195;-74
2022/12/17 16:22:37;;;;;;;94.68;29.25;;;-3.20;99.90;;;;;;4165575;28;20214;-75
2022/12/17 16:24:40;;;;;;;83.75;27.55;;;-3.10;99.90;;;;;;4168802;28;20226;-74
2022/12/17 16:26:42;;;;;;;95.18;27.90;;;-3.10;99.90;;;;;;4181052;28;20231;-74
2022/12/17 16:28:44;;;;;;;99.15;28.58;;;-3.10;99.90;;;;;;4176387;28;20219;-75
2022/12/17 16:30:57;;;;;;;89.22;26.77;;;-3.10;99.90;;;;;;4156855;28;20207;-74
2022/12/17 16:32:59;;;;;;;87.45;25.63;;;-3.10;99.90;;;;;;4174227;28;20284;-74
2022/12/17 16:35:01;;;;;;;78.43;24.95;;;-3.20;99.90;;;;;;4168153;28;20211;-74
2022/12/17 16:37:06;;;;;;;101.47;28.43;;;-3.20;99.90;;;;;;4172798;28;20230;-75
2022/12/17 16:39:08;;;;;;;82.85;25.88;;;-3.20;99.90;;;;;;4153278;28;20491;-75
2022/12/17 16:41:12;;;;;;;85.53;26.92;;;-3.20;99.90;;;;;;4170829;28;20214;-75
2022/12/17 16:43:14;;;;;;;77.38;25.60;;;-3.20;99.90;;;;;;4170562;28;20206;-75
2022/12/17 16:45:16;;;;;;;83.45;26.98;;;-3.20;99.90;;;;;;4173485;28;20209;-75
2022/12/17 16:47:18;;;;;;;85.70;26.63;;;-3.20;99.90;;;;;;4168698;28;20242;-75
2022/12/17 16:49:22;;;;;;;87.53;28.05;;;-3.20;99.90;;;;;;4169186;28;20322;-75
2022/12/17 16:51:25;;;;;;;87.05;28.20;;;-3.20;99.90;;;;;;4166530;28;20258;-76
2022/12/17 16:53:31;;;;;;;80.35;25.65;;;-3.20;99.90;;;;;;4172757;28;20269;-75
2022/12/17 16:55:33;;;;;;;85.00;27.80;;;-3.20;99.90;;;;;;4170939;28;20214;-75
2022/12/17 16:57:36;;;;;;;81.60;27.25;;;-3.10;99.90;;;;;;4172651;28;20218;-75
2022/12/17 16:59:38;;;;;;;86.95;27.92;;;-3.00;99.90;;;;;;4167438;28;20241;-75
2022/12/17 17:01:43;;;;;;;81.68;25.75;;;-3.30;99.90;;;;;;4170822;28;20245;-75
2022/12/17 17:03:48;;;;;;;82.20;27.67;;;-3.30;99.90;;;;;;4157955;28;20273;-75
2022/12/17 17:05:50;;;;;;;93.57;30.27;;;-3.30;99.90;;;;;;4173282;28;20214;-75
2022/12/17 17:07:54;;;;;;;82.22;26.08;;;-3.30;99.90;;;;;;4152229;28;20323;-75
2022/12/17 17:09:56;;;;;;;81.25;26.42;;;-3.30;99.90;;;;;;4170062;28;20231;-75
2022/12/17 17:11:59;;;;;;;84.10;27.65;;;-3.30;99.90;;;;;;4170119;28;20257;-75
2022/12/17 17:14:05;;;;;;;82.10;26.65;;;-3.30;99.90;;;;;;4171225;28;20256;-75
2022/12/17 17:16:09;;;;;;;85.72;27.55;;;-3.30;99.90;;;;;;4170542;28;20655;-75
2022/12/17 17:18:11;;;;;;;84.18;27.42;;;-3.30;99.90;;;;;;4171168;28;20341;-75
2022/12/17 17:20:14;;;;;;;91.75;28.52;;;-3.30;99.90;;;;;;4171723;28;20635;-74
2022/12/17 17:22:16;;;;;;;85.68;28.60;;;-3.30;99.90;;;;;;4170457;28;20209;-74
2022/12/17 17:24:20;;;;;;;100.57;30.05;;;-3.30;99.90;;;;;;4153828;28;20208;-75
2022/12/17 17:26:22;;;;;;;86.75;27.48;;;-3.40;99.90;;;;;;4175821;28;20221;-75
2022/12/17 17:28:24;;;;;;;93.97;29.13;;;-3.00;99.90;;;;;;4172369;28;20731;-75
2022/12/17 17:30:28;;;;;;;86.40;30.67;;;-3.40;99.90;;;;;;4169886;28;20705;-76
2022/12/17 17:32:29;;;;;;;86.32;28.92;;;-3.40;99.90;;;;;;4171490;28;20206;-76
2022/12/17 17:34:31;;;;;;;86.97;28.25;;;-2.40;99.90;;;;;;4175204;28;20194;-75
2022/12/17 17:36:33;;;;;;;85.60;28.65;;;-3.40;99.90;;;;;;4166199;28;20344;-76
2022/12/17 17:38:37;;;;;;;85.22;29.05;;;-3.40;99.90;;;;;;4166235;28;20251;-75
2022/12/17 17:40:39;;;;;;;94.50;29.05;;;-3.40;99.90;;;;;;4151881;28;20215;-75
2022/12/17 17:42:41;;;;;;;94.22;30.25;;;-3.50;99.90;;;;;;4152779;28;20227;-76
2022/12/17 17:44:43;;;;;;;87.90;29.67;;;-3.50;99.90;;;;;;4167571;28;20203;-75
2022/12/17 17:46:46;;;;;;;84.53;28.45;;;-3.50;99.90;;;;;;4175347;28;20227;-74
2022/12/17 17:48:49;;;;;;;83.07;28.95;;;-3.50;99.90;;;;;;4153561;28;20582;-74
2022/12/17 17:50:58;;;;;;;88.93;27.58;;;-3.50;99.90;;;;;;4169262;28;20820;-74
2022/12/17 17:53:00;;;;;;;82.32;28.08;;;-3.50;99.90;;;;;;4174684;28;20608;-75
2022/12/17 17:55:02;;;;;;;86.28;28.52;;;-3.60;99.90;;;;;;4166011;28;20204;-74
2022/12/17 17:57:04;;;;;;;90.30;29.40;;;-3.60;99.90;;;;;;4174007;28;20605;-74
2022/12/17 17:59:14;;;;;;;84.65;28.48;;;-3.60;99.90;;;;;;4168978;28;20305;-74
2022/12/17 18:01:18;;;;;;;84.38;27.80;;;-3.60;99.90;;;;;;4167685;28;20202;-74
2022/12/17 18:03:22;;;;;;;98.50;31.27;;;-3.60;99.90;;;;;;4152894;28;20204;-75
2022/12/17 18:05:24;;;;;;;95.07;32.08;;;-3.70;99.90;;;;;;4155144;28;20297;-74
2022/12/17 18:07:26;;;;;;;87.25;30.58;;;-3.70;99.90;;;;;;4162964;28;20317;-74
2022/12/17 18:09:28;;;;;;;104.53;33.42;;;-3.70;99.90;;;;;;4166998;28;20246;-76
2022/12/17 18:11:31;;;;;;;99.57;30.25;;;-3.60;99.90;;;;;;4166445;28;20211;-75
2022/12/17 18:16:00;;;;;;;100.03;32.13;;;-3.70;99.90;;;;;;4169861;28;20222;-75
2022/12/17 18:18:02;;;;;;;104.03;31.48;;;-3.70;99.90;;;;;;4173183;28;20214;-75
2022/12/17 18:20:08;;;;;;;106.90;31.30;;;-3.80;99.90;;;;;;4169898;28;20239;-76
2022/12/17 18:22:10;;;;;;;106.07;30.92;;;-3.70;99.90;;;;;;4167162;28;20280;-75
2022/12/17 18:24:14;;;;;;;83.55;29.95;;;-3.70;99.90;;;;;;4150101;28;20881;-75
2022/12/17 18:26:19;;;;;;;105.65;31.42;;;-3.70;99.90;;;;;;4163554;28;20224;-74
2022/12/17 18:28:21;;;;;;;101.03;31.08;;;-3.70;99.90;;;;;;4169756;28;20298;-75
2022/12/17 18:30:25;;;;;;;104.68;31.35;;;-3.70;99.90;;;;;;4173978;28;20230;-74
2022/12/17 18:32:27;;;;;;;99.47;30.23;;;-3.80;99.90;;;;;;4165603;28;20249;-74
2022/12/17 18:34:29;;;;;;;88.40;29.55;;;-3.80;99.90;;;;;;4166376;28;20653;-74
2022/12/17 18:36:36;;;;;;;102.07;30.17;;;-3.80;99.90;;;;;;4171160;28;20261;-74
2022/12/17 18:38:38;;;;;;;82.47;29.42;;;-3.80;99.90;;;;;;4169604;28;20250;-75
2022/12/17 18:40:40;;;;;;;91.75;29.27;;;-3.80;99.90;;;;;;4163897;28;20235;-74
2022/12/17 18:45:01;;;;;;;94.40;31.00;;;-3.80;99.90;;;;;;4171984;28;20205;-74
2022/12/17 18:47:03;;;;;;;90.47;30.15;;;-3.80;99.90;;;;;;4169624;28;20229;-74
2022/12/17 18:49:06;;;;;;;86.28;28.35;;;-3.80;99.90;;;;;;4165558;28;20241;-74
2022/12/17 18:51:10;;;;;;;84.20;28.65;;;-3.80;99.90;;;;;;4167600;28;20218;-75
2022/12/17 18:53:13;;;;;;;82.82;27.45;;;-3.80;99.90;;;;;;4169794;28;20234;-75
2022/12/17 18:55:15;;;;;;;79.57;27.02;;;-3.80;99.90;;;;;;4156612;28;20219;-74
2022/12/17 18:57:17;;;;;;;80.78;26.80;;;-3.90;99.90;;;;;;4176042;28;20309;-75
2022/12/17 18:59:21;;;;;;;83.50;29.08;;;-3.90;99.90;;;;;;4169647;28;20215;-74
2022/12/17 19:01:24;;;;;;;86.40;27.73;;;-3.90;99.90;;;;;;4173982;28;20249;-74
2022/12/17 19:03:26;;;;;;;79.35;27.35;;;-3.90;99.90;;;;;;4172283;28;20199;-75
2022/12/17 19:05:28;;;;;;;75.65;27.80;;;-3.90;99.90;;;;;;4177326;28;20238;-74
2022/12/17 19:07:30;;;;;;;88.70;30.05;;;-3.90;99.90;;;;;;4168581;28;20309;-74
2022/12/17 19:09:34;;;;;;;82.28;27.58;;;-4.00;99.90;;;;;;4168274;28;20261;-75
2022/12/17 19:11:36;;;;;;;88.93;31.42;;;-4.00;99.90;;;;;;4169834;28;20571;-75
2022/12/17 19:13:38;;;;;;;82.72;29.40;;;-4.00;99.90;;;;;;4170323;28;20298;-75
2022/12/17 19:15:40;;;;;;;94.85;31.13;;;-4.00;99.90;;;;;;4172800;28;20693;-75
2022/12/17 19:17:42;;;;;;;82.03;27.95;;;-4.00;99.90;;;;;;4171982;28;20202;-74
2022/12/17 19:19:44;;;;;;;82.60;29.25;;;-4.00;99.90;;;;;;4167104;28;20661;-75
2022/12/17 19:21:47;;;;;;;80.97;28.67;;;-4.00;99.90;;;;;;4175007;28;20210;-75
2022/12/17 19:23:50;;;;;;;88.95;30.40;;;-4.00;99.90;;;;;;4171168;28;20681;-75
2022/12/17 19:25:53;;;;;;;87.13;29.13;;;-4.00;99.90;;;;;;4173198;28;20232;-75
2022/12/17 19:27:55;;;;;;;86.75;29.60;;;-4.00;99.90;;;;;;4176105;28;20241;-76
2022/12/17 19:29:57;;;;;;;85.78;27.02;;;-4.00;99.90;;;;;;4174670;28;20199;-75
2022/12/17 19:31:59;;;;;;;95.43;29.90;;;-4.00;99.90;;;;;;4157927;28;20294;-75
2022/12/17 19:34:02;;;;;;;88.82;28.58;;;-4.10;99.90;;;;;;4171275;28;20235;-75
2022/12/17 19:36:06;;;;;;;82.25;28.63;;;-4.10;99.90;;;;;;4169503;28;20238;-75
2022/12/17 19:38:08;;;;;;;84.95;28.48;;;-4.10;99.90;;;;;;4177313;28;20577;-75
2022/12/17 19:40:11;;;;;;;78.45;28.40;;;-4.10;99.90;;;;;;4172031;28;20256;-74
2022/12/17 19:42:24;;;;;;;86.50;28.65;;;-4.40;99.90;;;;;;4172777;28;20206;-75
2022/12/17 19:44:26;;;;;;;82.93;28.13;;;-4.10;99.90;;;;;;4168931;28;21216;-75
2022/12/17 19:46:29;;;;;;;79.63;29.25;;;-4.10;99.90;;;;;;4154987;28;20312;-75
2022/12/17 19:48:35;;;;;;;88.43;29.77;;;-4.10;99.90;;;;;;4172201;28;20210;-75
2022/12/17 19:50:36;;;;;;;84.35;30.05;;;-4.10;99.90;;;;;;4157455;28;20227;-75
2022/12/17 19:52:38;;;;;;;86.75;29.70;;;-4.10;99.90;;;;;;4170184;28;20288;-74
2022/12/17 19:54:40;;;;;;;78.95;29.08;;;-4.10;99.90;;;;;;4177964;28;20245;-74
2022/12/17 19:56:44;;;;;;;84.55;28.83;;;-4.10;99.90;;;;;;4172560;28;20230;-74
2022/12/17 19:58:49;;;;;;;84.53;29.45;;;-4.10;99.90;;;;;;4170638;28;20242;-74
2022/12/17 20:00:52;;;;;;;87.20;29.33;;;-4.10;99.90;;;;;;4172128;28;20240;-74
2022/12/17 20:02:54;;;;;;;79.40;28.58;;;-4.10;99.90;;;;;;4160288;28;20310;-74
2022/12/17 20:04:55;;;;;;;81.10;28.83;;;-4.20;99.90;;;;;;4173890;28;20218;-75
2022/12/17 20:06:59;;;;;;;82.13;28.02;;;-4.20;99.90;;;;;;4167751;28;20222;-74
2022/12/17 20:09:03;;;;;;;83.57;28.95;;;-4.20;99.90;;;;;;4177204;28;20214;-74
2022/12/17 20:11:31;;;;;;;92.57;30.58;;;-4.20;99.90;;;;;;4167347;28;20233;-74
2022/12/17 20:13:30;;;;;;;84.40;29.08;;;-4.20;99.90;;;;;;4169415;28;20213;-74
2022/12/17 20:15:33;;;;;;;93.22;29.80;;;-4.20;99.90;;;;;;4178583;28;20260;-74
2022/12/17 20:17:35;;;;;;;83.30;27.85;;;-4.20;99.90;;;;;;4166827;28;20237;-74
2022/12/17 20:19:37;;;;;;;85.75;28.35;;;-4.30;99.90;;;;;;4168362;28;20222;-75
2022/12/17 20:21:39;;;;;;;90.18;28.25;;;-4.30;99.90;;;;;;4172403;28;20244;-75
2022/12/17 20:23:41;;;;;;;85.13;29.08;;;-4.30;99.90;;;;;;4170866;28;20241;-75
2022/12/17 20:25:43;;;;;;;92.40;29.88;;;-4.30;99.90;;;;;;4152341;28;20249;-75
2022/12/17 20:27:45;;;;;;;89.93;30.23;;;-4.30;99.90;;;;;;4169089;28;20619;-74
2022/12/17 20:29:47;;;;;;;89.13;30.90;;;-4.30;99.90;;;;;;4169260;28;20203;-75
2022/12/17 20:31:51;;;;;;;91.20;29.05;;;-4.30;99.90;;;;;;4172109;28;20232;-75
2022/12/17 20:33:53;;;;;;;89.85;30.15;;;-4.30;99.90;;;;;;4172874;28;20209;-75
2022/12/17 20:35:55;;;;;;;83.07;29.77;;;-4.40;99.90;;;;;;4171537;28;20289;-75
2022/12/17 20:37:57;;;;;;;85.55;28.25;;;-4.40;99.90;;;;;;4156349;28;20206;-75
2022/12/17 20:39:59;;;;;;;87.38;29.83;;;-4.40;99.90;;;;;;4177704;28;20269;-74
2022/12/17 20:42:01;;;;;;;89.85;31.73;;;-4.40;99.90;;;;;;4167503;28;20234;-75
2022/12/17 20:44:06;;;;;;;89.97;31.67;;;-4.30;99.90;;;;;;4169496;28;20296;-74
2022/12/17 20:46:09;;;;;;;95.72;32.55;;;-4.50;99.90;;;;;;4171925;28;20226;-74
2022/12/17 20:48:12;;;;;;;98.07;31.95;;;-4.50;99.90;;;;;;4174419;28;20961;-75
2022/12/17 20:50:14;;;;;;;86.93;30.85;;;-4.50;99.90;;;;;;4172346;28;20361;-74
2022/12/17 20:52:16;;;;;;;93.00;29.95;;;-4.60;99.90;;;;;;4171281;28;20261;-75
2022/12/17 20:54:20;;;;;;;93.60;28.92;;;-4.60;99.90;;;;;;4171095;28;20775;-74
2022/12/17 20:56:25;;;;;;;92.22;30.25;;;-4.50;99.90;;;;;;4171328;28;20305;-75
2022/12/17 20:58:27;;;;;;;85.97;30.30;;;-4.60;99.90;;;;;;4169485;28;20234;-75
2022/12/17 21:00:29;;;;;;;94.05;30.67;;;-4.60;99.90;;;;;;4167104;28;20696;-75
2022/12/17 21:02:31;;;;;;;88.07;29.67;;;-4.60;99.90;;;;;;4170016;28;20210;-75
2022/12/17 21:04:34;;;;;;;92.72;29.92;;;-4.60;99.90;;;;;;4167844;28;20309;-74
2022/12/17 21:06:38;;;;;;;96.85;30.52;;;-4.70;99.90;;;;;;4168852;28;20708;-74
2022/12/17 21:08:41;;;;;;;90.47;28.58;;;-4.70;99.90;;;;;;4171096;28;20206;-75
2022/12/17 21:10:43;;;;;;;84.03;29.13;;;-4.50;99.90;;;;;;4165319;28;20206;-75
2022/12/17 21:15:05;;;;;;;86.68;27.50;;;-4.70;99.90;;;;;;4170948;28;20285;-75
2022/12/17 21:17:07;;;;;;;81.50;27.42;;;-4.70;99.90;;;;;;4169053;28;20227;-75
2022/12/17 21:19:12;;;;;;;82.97;28.80;;;-4.70;99.90;;;;;;4166266;28;20579;-75
2022/12/17 21:21:18;;;;;;;91.63;29.42;;;-4.80;99.90;;;;;;4170152;28;20207;-75
2022/12/17 21:23:20;;;;;;;91.40;29.88;;;-4.80;99.90;;;;;;4171627;28;20199;-75
2022/12/17 21:25:22;;;;;;;87.88;28.70;;;-4.80;99.90;;;;;;4170710;28;20203;-75
2022/12/17 21:27:24;;;;;;;81.88;27.67;;;-4.80;99.90;;;;;;4171667;28;20229;-75
2022/12/17 21:29:26;;;;;;;84.75;28.00;;;-4.80;99.90;;;;;;4154404;28;20597;-75
2022/12/17 21:31:30;;;;;;;79.68;27.20;;;-4.90;99.90;;;;;;4170337;28;20281;-75
2022/12/17 21:33:33;;;;;;;82.60;27.80;;;-4.90;99.90;;;;;;4169515;28;20197;-75
2022/12/17 21:35:36;;;;;;;78.63;27.35;;;-4.90;99.90;;;;;;4154980;28;20214;-75
2022/12/17 21:37:40;;;;;;;88.72;26.77;;;-5.00;99.90;;;;;;4171624;28;20229;-75
2022/12/17 21:39:42;;;;;;;81.95;28.83;;;-5.00;99.90;;;;;;4151125;28;20247;-75
2022/12/17 21:43:00;;;;;;;93.32;30.67;;;-5.00;99.90;;;;;;4171060;28;20255;-75
2022/12/17 21:44:13;;;;;;;92.00;30.23;;;-5.00;99.90;;;;;;4153853;28;20211;-75
2022/12/17 21:46:14;;;;;;;85.95;31.45;;;-5.00;99.90;;;;;;4170944;28;20232;-75
2022/12/17 21:48:16;;;;;;;90.70;29.75;;;-5.10;99.90;;;;;;4172591;28;20202;-75
2022/12/17 21:50:18;;;;;;;86.82;28.88;;;-5.10;99.90;;;;;;4169704;28;20243;-75
2022/12/17 21:52:20;;;;;;;81.97;28.33;;;-5.10;99.90;;;;;;4170844;28;20325;-75
2022/12/17 21:54:24;;;;;;;82.13;27.27;;;-5.10;99.90;;;;;;4172121;28;20239;-75
2022/12/17 21:56:26;;;;;;;78.60;26.95;;;-5.20;99.90;;;;;;4149428;28;20227;-75
2022/12/17 21:58:28;;;;;;;79.82;27.35;;;-5.30;99.90;;;;;;4173111;28;20273;-75
2022/12/17 22:00:30;;;;;;;78.05;27.17;;;-5.30;99.90;;;;;;4168440;28;20228;-75
2022/12/17 22:02:32;;;;;;;81.93;27.48;;;-5.30;99.90;;;;;;4170349;28;20212;-75
2022/12/17 22:04:34;;;;;;;80.53;27.50;;;-5.40;99.90;;;;;;4171733;28;20622;-75
2022/12/17 22:06:37;;;;;;;84.28;27.35;;;-5.40;99.90;;;;;;4167352;28;20724;-75
2022/12/17 22:08:42;;;;;;;83.75;26.92;;;-5.50;99.90;;;;;;4170587;28;20213;-75
2022/12/17 22:10:46;;;;;;;83.50;28.30;;;-5.40;99.90;;;;;;4153076;28;20575;-75
2022/12/17 22:15:09;;;;;;;81.45;26.52;;;-5.50;99.90;;;;;;4163889;28;20206;-75
2022/12/17 22:17:11;;;;;;;73.25;25.05;;;-5.60;99.90;;;;;;4166554;28;20227;-75
2022/12/17 22:19:16;;;;;;;80.78;28.30;;;-5.60;99.90;;;;;;4151776;28;20247;-75
2022/12/17 22:21:18;;;;;;;76.65;27.33;;;-5.70;99.90;;;;;;4167621;28;20231;-75
2022/12/17 22:23:19;;;;;;;85.80;27.50;;;-5.40;99.90;;;;;;4170650;28;20232;-74
2022/12/17 22:25:21;;;;;;;83.45;29.30;;;-5.70;99.90;;;;;;4151862;28;20870;-74
2022/12/17 22:27:25;;;;;;;82.60;28.42;;;-5.70;99.90;;;;;;4174151;28;20220;-74
2022/12/17 22:34:07;;;;;;;79.95;27.05;;;-5.80;99.90;;;;;;4170949;28;20215;-74
2022/12/17 22:36:10;;;;;;;73.28;25.73;;;-5.80;99.90;;;;;;4153475;28;20626;-76
2022/12/17 22:38:12;;;;;;;78.70;26.25;;;-5.80;99.90;;;;;;4169779;28;20226;-75
2022/12/17 22:40:14;;;;;;;82.53;28.17;;;-5.90;99.90;;;;;;4169199;28;20220;-76
2022/12/17 22:44:38;;;;;;;75.93;26.02;;;-6.00;99.90;;;;;;4171773;28;20272;-75
2022/12/17 22:46:40;;;;;;;78.53;25.25;;;-6.00;99.90;;;;;;4169893;28;20596;-75
2022/12/17 22:48:42;;;;;;;72.60;24.98;;;-6.00;99.90;;;;;;4174802;28;20217;-74
2022/12/17 22:50:44;;;;;;;72.05;24.80;;;-5.70;99.90;;;;;;4171903;28;20207;-74
2022/12/17 22:52:46;;;;;;;79.80;26.90;;;-6.10;99.90;;;;;;4176012;28;20624;-73
2022/12/17 22:54:48;;;;;;;73.50;26.77;;;-6.10;99.90;;;;;;4158491;28;20216;-73
2022/12/17 22:56:50;;;;;;;79.05;26.23;;;-6.10;99.90;;;;;;4170975;28;20706;-74
2022/12/17 22:58:52;;;;;;;78.00;26.60;;;-6.20;99.90;;;;;;4155327;28;20216;-75
2022/12/17 23:00:55;;;;;;;77.00;26.60;;;-6.20;99.90;;;;;;4169559;28;20224;-74
2022/12/17 23:02:57;;;;;;;76.00;25.77;;;-6.20;99.90;;;;;;4172280;28;20262;-74
2022/12/17 23:04:59;;;;;;;81.28;27.80;;;-6.20;99.90;;;;;;4176857;28;20213;-73
2022/12/17 23:07:01;;;;;;;85.47;28.08;;;-6.10;99.90;;;;;;4172643;28;20647;-73
2022/12/17 23:09:03;;;;;;;85.43;28.73;;;-6.20;99.90;;;;;;4169278;28;20290;-74
2022/12/17 23:11:09;;;;;;;88.20;30.25;;;-6.20;99.90;;;;;;4173718;28;20209;-75
2022/12/17 23:13:11;;;;;;;98.53;31.13;;;-6.20;99.90;;;;;;4162034;28;20243;-75
2022/12/17 23:15:13;;;;;;;90.68;29.92;;;-6.20;99.90;;;;;;4174378;28;21378;-74
2022/12/17 23:17:16;;;;;;;99.05;30.70;;;-6.10;99.90;;;;;;4153904;28;20297;-75
2022/12/17 23:19:18;;;;;;;88.40;29.52;;;-6.20;99.90;;;;;;4174416;28;20734;-74
2022/12/17 23:21:22;;;;;;;91.65;31.33;;;-6.20;99.90;;;;;;4158653;28;20251;-74
2022/12/17 23:23:24;;;;;;;86.72;28.75;;;-6.20;99.90;;;;;;4159621;28;20206;-75
2022/12/17 23:25:28;;;;;;;86.65;29.70;;;-6.10;99.90;;;;;;4177619;28;20619;-73
2022/12/17 23:27:29;;;;;;;93.35;29.65;;;-6.00;99.90;;;;;;4159222;28;20224;-74
2022/12/17 23:29:31;;;;;;;89.32;28.23;;;-6.00;99.90;;;;;;4154761;28;20237;-74
2022/12/17 23:31:37;;;;;;;95.47;29.50;;;-6.00;99.90;;;;;;4173234;28;20223;-74
2022/12/17 23:33:41;;;;;;;89.95;29.70;;;-5.90;99.90;;;;;;4170569;28;20204;-74
2022/12/17 23:35:43;;;;;;;95.82;29.92;;;-5.90;99.90;;;;;;4171002;28;20601;-74
2022/12/17 23:37:45;;;;;;;91.25;30.35;;;-5.80;99.90;;;;;;4174774;28;20690;-74
2022/12/17 23:39:47;;;;;;;96.63;29.10;;;-5.70;99.90;;;;;;4176874;28;20248;-74
2022/12/17 23:41:49;;;;;;;97.75;31.42;;;-5.60;99.90;;;;;;4160637;28;20336;-74
2022/12/17 23:43:51;;;;;;;102.00;32.92;;;-5.60;99.90;;;;;;4162092;28;20200;-74
2022/12/17 23:45:53;;;;;;;104.45;34.13;;;-5.50;99.90;;;;;;4161434;28;20212;-74
2022/12/17 23:47:56;;;;;;;95.10;31.27;;;-5.40;99.90;;;;;;4165570;28;20234;-74
2022/12/17 23:49:59;;;;;;;96.03;32.55;;;-5.40;99.90;;;;;;4174780;28;20730;-74
2022/12/17 23:52:24;;;;;;;;;;;;;;;;;;;;;
2022/12/17 23:54:28;;;;;;;104.35;33.50;;;-4.30;99.90;;;;;;4155313;28;20248;-75
2022/12/17 23:56:30;;;;;;;96.57;31.05;;;-5.30;99.90;;;;;;4156631;28;20349;-75